sensor_id;sensor_type;location;lat;lon;timestamp;P1;durP1;ratioP1;P2;durP2;ratioP2
68375;SDS011;55318;52.068;5.188;2023-06-26T00:02:14;5.5;;;3.1;;
68375;SDS011;55318;52.068;5.188;2023-06-26T00:03:50;4.91;;;3.4;;
68375;SDS011;55318;52.068;5.188;2023-06-26T00:05:26;5.11;;;3.0;;
68375;SDS011;55318;52.068;5.188;2023-06-26T00:08:40;7.1;;;3.3;;
68375;SDS011;55318;52.068;5.188;2023-06-26T00:10:17;4.7;;;3.4;;
68375;SDS011;55318;52.068;5.188;2023-06-26T00:11:53;4.8;;;3.0;;
68375;SDS011;55318;52.068;5.188;2023-06-26T00:15:06;5.0;;;3.1;;
68375;SDS011;55318;52.068;5.188;2023-06-26T00:16:42;5.8;;;3.4;;
68375;SDS011;55318;52.068;5.188;2023-06-26T00:18:18;4.5;;;2.9;;
68375;SDS011;55318;52.068;5.188;2023-06-26T00:19:55;4.5;;;3.1;;
68375;SDS011;55318;52.068;5.188;2023-06-26T00:23:11;4.91;;;3.4;;
68375;SDS011;55318;52.068;5.188;2023-06-26T00:24:47;4.2;;;2.8;;
68375;SDS011;55318;52.068;5.188;2023-06-26T00:26:25;4.41;;;3.1;;
68375;SDS011;55318;52.068;5.188;2023-06-26T00:29:38;4.1;;;2.7;;
68375;SDS011;55318;52.068;5.188;2023-06-26T00:31:14;5.3;;;2.7;;
68375;SDS011;55318;52.068;5.188;2023-06-26T00:32:51;4.1;;;3.1;;
68375;SDS011;55318;52.068;5.188;2023-06-26T00:34:27;2.6;;;2.4;;
68375;SDS011;55318;52.068;5.188;2023-06-26T00:37:40;4.2;;;3.3;;
68375;SDS011;55318;52.068;5.188;2023-06-26T00:39:16;4.7;;;3.2;;
68375;SDS011;55318;52.068;5.188;2023-06-26T00:40:52;4.3;;;3.3;;
68375;SDS011;55318;52.068;5.188;2023-06-26T00:44:05;3.3;;;2.7;;
68375;SDS011;55318;52.068;5.188;2023-06-26T00:45:42;5.3;;;3.4;;
68375;SDS011;55318;52.068;5.188;2023-06-26T00:47:18;4.2;;;2.8;;
68375;SDS011;55318;52.068;5.188;2023-06-26T00:50:35;3.6;;;2.7;;
68375;SDS011;55318;52.068;5.188;2023-06-26T00:52:11;4.1;;;3.2;;
68375;SDS011;55318;52.068;5.188;2023-06-26T00:53:48;6.2;;;4.1;;
68375;SDS011;55318;52.068;5.188;2023-06-26T00:55:25;5.7;;;3.2;;
68375;SDS011;55318;52.068;5.188;2023-06-26T00:58:39;4.5;;;3.2;;
68375;SDS011;55318;52.068;5.188;2023-06-26T01:00:17;5.11;;;3.4;;
68375;SDS011;55318;52.068;5.188;2023-06-26T01:01:54;4.41;;;3.2;;
68375;SDS011;55318;52.068;5.188;2023-06-26T01:05:06;5.3;;;3.3;;
68375;SDS011;55318;52.068;5.188;2023-06-26T01:06:44;3.2;;;2.7;;
68375;SDS011;55318;52.068;5.188;2023-06-26T01:08:22;7.2;;;3.3;;
68375;SDS011;55318;52.068;5.188;2023-06-26T01:10:00;5.6;;;3.6;;
68375;SDS011;55318;52.068;5.188;2023-06-26T01:13:13;5.0;;;2.8;;
68375;SDS011;55318;52.068;5.188;2023-06-26T01:14:51;5.11;;;3.2;;
68375;SDS011;55318;52.068;5.188;2023-06-26T01:16:28;3.3;;;2.4;;
68375;SDS011;55318;52.068;5.188;2023-06-26T01:19:43;6.5;;;3.1;;
68375;SDS011;55318;52.068;5.188;2023-06-26T01:21:20;5.3;;;2.7;;
68375;SDS011;55318;52.068;5.188;2023-06-26T01:22:57;3.9;;;2.9;;
68375;SDS011;55318;52.068;5.188;2023-06-26T01:24:44;4.0;;;2.4;;
68375;SDS011;55318;52.068;5.188;2023-06-26T01:28:16;4.1;;;2.5;;
68375;SDS011;55318;52.068;5.188;2023-06-26T01:29:55;4.3;;;2.7;;
68375;SDS011;55318;52.068;5.188;2023-06-26T01:31:32;2.9;;;2.0;;
68375;SDS011;55318;52.068;5.188;2023-06-26T01:33:10;3.7;;;2.0;;
68375;SDS011;55318;52.068;5.188;2023-06-26T01:36:27;3.3;;;1.9;;
68375;SDS011;55318;52.068;5.188;2023-06-26T01:38:12;3.3;;;2.0;;
68375;SDS011;55318;52.068;5.188;2023-06-26T01:39:52;3.6;;;2.31;;
68375;SDS011;55318;52.068;5.188;2023-06-26T01:41:28;3.1;;;2.1;;
68375;SDS011;55318;52.068;5.188;2023-06-26T01:44:51;3.4;;;1.9;;
68375;SDS011;55318;52.068;5.188;2023-06-26T01:46:33;6.1;;;2.31;;
68375;SDS011;55318;52.068;5.188;2023-06-26T01:48:20;3.2;;;1.9;;
68375;SDS011;55318;52.068;5.188;2023-06-26T01:50:05;7.4;;;2.4;;
68375;SDS011;55318;52.068;5.188;2023-06-26T01:53:31;2.6;;;1.6;;
68375;SDS011;55318;52.068;5.188;2023-06-26T01:55:15;4.5;;;2.5;;
68375;SDS011;55318;52.068;5.188;2023-06-26T01:57:03;4.1;;;2.4;;
68375;SDS011;55318;52.068;5.188;2023-06-26T01:58:43;3.2;;;1.5;;
68375;SDS011;55318;52.068;5.188;2023-06-26T02:00:22;3.3;;;2.1;;
68375;SDS011;55318;52.068;5.188;2023-06-26T02:03:37;3.2;;;1.8;;
68375;SDS011;55318;52.068;5.188;2023-06-26T02:05:13;7.8;;;2.21;;
68375;SDS011;55318;52.068;5.188;2023-06-26T02:06:50;4.5;;;2.0;;
68375;SDS011;55318;52.068;5.188;2023-06-26T02:10:04;5.2;;;2.0;;
68375;SDS011;55318;52.068;5.188;2023-06-26T02:11:42;4.3;;;2.1;;
68375;SDS011;55318;52.068;5.188;2023-06-26T02:13:18;6.0;;;2.0;;
68375;SDS011;55318;52.068;5.188;2023-06-26T02:14:55;3.6;;;2.0;;
68375;SDS011;55318;52.068;5.188;2023-06-26T02:18:07;4.61;;;1.8;;
68375;SDS011;55318;52.068;5.188;2023-06-26T02:19:43;5.0;;;2.1;;
68375;SDS011;55318;52.068;5.188;2023-06-26T02:21:20;4.8;;;2.1;;
68375;SDS011;55318;52.068;5.188;2023-06-26T02:24:32;7.5;;;2.4;;
68375;SDS011;55318;52.068;5.188;2023-06-26T02:26:08;3.6;;;2.0;;
68375;SDS011;55318;52.068;5.188;2023-06-26T02:27:44;4.3;;;1.9;;
68375;SDS011;55318;52.068;5.188;2023-06-26T02:30:57;5.6;;;2.21;;
68375;SDS011;55318;52.068;5.188;2023-06-26T02:32:33;4.5;;;1.9;;
68375;SDS011;55318;52.068;5.188;2023-06-26T02:34:09;5.0;;;2.4;;
68375;SDS011;55318;52.068;5.188;2023-06-26T02:35:45;2.8;;;2.0;;
68375;SDS011;55318;52.068;5.188;2023-06-26T02:38:59;8.81;;;2.31;;
68375;SDS011;55318;52.068;5.188;2023-06-26T02:40:35;5.6;;;2.4;;
68375;SDS011;55318;52.068;5.188;2023-06-26T02:42:11;3.5;;;1.7;;
68375;SDS011;55318;52.068;5.188;2023-06-26T02:45:24;4.61;;;2.0;;
68375;SDS011;55318;52.068;5.188;2023-06-26T02:47:01;6.6;;;2.6;;
68375;SDS011;55318;52.068;5.188;2023-06-26T02:48:37;5.4;;;2.21;;
68375;SDS011;55318;52.068;5.188;2023-06-26T02:51:51;7.1;;;2.0;;
68375;SDS011;55318;52.068;5.188;2023-06-26T02:53:27;6.5;;;2.6;;
68375;SDS011;55318;52.068;5.188;2023-06-26T02:55:04;4.1;;;1.8;;
68375;SDS011;55318;52.068;5.188;2023-06-26T02:56:40;5.7;;;2.4;;
68375;SDS011;55318;52.068;5.188;2023-06-26T02:59:55;5.11;;;2.0;;
68375;SDS011;55318;52.068;5.188;2023-06-26T03:01:31;4.8;;;2.21;;
68375;SDS011;55318;52.068;5.188;2023-06-26T03:03:08;4.3;;;2.0;;
68375;SDS011;55318;52.068;5.188;2023-06-26T03:06:21;8.9;;;2.1;;
68375;SDS011;55318;52.068;5.188;2023-06-26T03:07:58;4.91;;;2.4;;
68375;SDS011;55318;52.068;5.188;2023-06-26T03:09:34;5.3;;;2.0;;
68375;SDS011;55318;52.068;5.188;2023-06-26T03:12:47;7.6;;;2.31;;
68375;SDS011;55318;52.068;5.188;2023-06-26T03:14:25;6.3;;;1.9;;
68375;SDS011;55318;52.068;5.188;2023-06-26T03:16:02;7.1;;;2.0;;
68375;SDS011;55318;52.068;5.188;2023-06-26T03:17:40;3.9;;;2.1;;
68375;SDS011;55318;52.068;5.188;2023-06-26T03:20:53;4.2;;;2.0;;
68375;SDS011;55318;52.068;5.188;2023-06-26T03:22:32;4.8;;;2.4;;
68375;SDS011;55318;52.068;5.188;2023-06-26T03:27:22;6.5;;;2.31;;
68375;SDS011;55318;52.068;5.188;2023-06-26T03:28:59;7.1;;;3.1;;
68375;SDS011;55318;52.068;5.188;2023-06-26T03:30:36;4.61;;;1.9;;
68375;SDS011;55318;52.068;5.188;2023-06-26T03:32:14;4.91;;;2.31;;
68375;SDS011;55318;52.068;5.188;2023-06-26T03:35:27;4.91;;;2.31;;
68375;SDS011;55318;52.068;5.188;2023-06-26T03:37:04;5.8;;;2.31;;
68375;SDS011;55318;52.068;5.188;2023-06-26T03:38:41;5.0;;;2.21;;
68375;SDS011;55318;52.068;5.188;2023-06-26T03:41:55;5.6;;;2.31;;
68375;SDS011;55318;52.068;5.188;2023-06-26T03:43:32;8.0;;;2.7;;
68375;SDS011;55318;52.068;5.188;2023-06-26T03:45:08;9.21;;;2.9;;
68375;SDS011;55318;52.068;5.188;2023-06-26T03:48:20;5.11;;;2.31;;
68375;SDS011;55318;52.068;5.188;2023-06-26T03:49:57;5.8;;;1.8;;
68375;SDS011;55318;52.068;5.188;2023-06-26T03:51:35;5.8;;;2.31;;
68375;SDS011;55318;52.068;5.188;2023-06-26T03:53:11;8.4;;;3.0;;
68375;SDS011;55318;52.068;5.188;2023-06-26T03:56:25;5.4;;;2.31;;
68375;SDS011;55318;52.068;5.188;2023-06-26T03:58:02;6.8;;;2.0;;
68375;SDS011;55318;52.068;5.188;2023-06-26T03:59:39;6.7;;;2.0;;
68375;SDS011;55318;52.068;5.188;2023-06-26T04:02:53;5.11;;;2.0;;
68375;SDS011;55318;52.068;5.188;2023-06-26T04:04:30;5.5;;;2.1;;
68375;SDS011;55318;52.068;5.188;2023-06-26T04:06:06;5.4;;;2.0;;
68375;SDS011;55318;52.068;5.188;2023-06-26T04:09:19;3.7;;;2.21;;
68375;SDS011;55318;52.068;5.188;2023-06-26T04:10:55;8.71;;;2.31;;
68375;SDS011;55318;52.068;5.188;2023-06-26T04:12:32;3.0;;;1.6;;
68375;SDS011;55318;52.068;5.188;2023-06-26T04:14:09;5.8;;;2.0;;
68375;SDS011;55318;52.068;5.188;2023-06-26T04:17:23;11.2;;;2.8;;
68375;SDS011;55318;52.068;5.188;2023-06-26T04:19:00;5.11;;;2.9;;
68375;SDS011;55318;52.068;5.188;2023-06-26T04:20:38;8.71;;;2.1;;
68375;SDS011;55318;52.068;5.188;2023-06-26T04:23:52;5.4;;;2.1;;
68375;SDS011;55318;52.068;5.188;2023-06-26T04:25:29;6.7;;;2.5;;
68375;SDS011;55318;52.068;5.188;2023-06-26T04:27:05;5.8;;;2.31;;
68375;SDS011;55318;52.068;5.188;2023-06-26T04:28:42;4.0;;;2.31;;
68375;SDS011;55318;52.068;5.188;2023-06-26T04:31:56;6.6;;;1.7;;
68375;SDS011;55318;52.068;5.188;2023-06-26T04:33:33;6.7;;;1.9;;
68375;SDS011;55318;52.068;5.188;2023-06-26T04:35:10;9.0;;;2.4;;
68375;SDS011;55318;52.068;5.188;2023-06-26T04:38:24;7.6;;;2.31;;
68375;SDS011;55318;52.068;5.188;2023-06-26T04:40:00;5.7;;;2.21;;
68375;SDS011;55318;52.068;5.188;2023-06-26T04:41:37;3.0;;;2.1;;
68375;SDS011;55318;52.068;5.188;2023-06-26T04:44:51;5.3;;;2.0;;
68375;SDS011;55318;52.068;5.188;2023-06-26T04:46:28;4.61;;;2.1;;
68375;SDS011;55318;52.068;5.188;2023-06-26T04:48:04;4.61;;;2.0;;
68375;SDS011;55318;52.068;5.188;2023-06-26T04:49:41;7.1;;;3.1;;
68375;SDS011;55318;52.068;5.188;2023-06-26T04:52:54;3.1;;;1.6;;
68375;SDS011;55318;52.068;5.188;2023-06-26T04:54:31;5.11;;;2.7;;
68375;SDS011;55318;52.068;5.188;2023-06-26T04:56:07;4.5;;;2.21;;
68375;SDS011;55318;52.068;5.188;2023-06-26T04:59:20;8.5;;;2.5;;
68375;SDS011;55318;52.068;5.188;2023-06-26T05:00:56;9.1;;;2.31;;
68375;SDS011;55318;52.068;5.188;2023-06-26T05:02:33;6.8;;;1.9;;
68375;SDS011;55318;52.068;5.188;2023-06-26T05:05:47;2.9;;;1.7;;
68375;SDS011;55318;52.068;5.188;2023-06-26T05:07:25;4.91;;;1.7;;
68375;SDS011;55318;52.068;5.188;2023-06-26T05:09:02;4.41;;;1.3;;
68375;SDS011;55318;52.068;5.188;2023-06-26T05:10:39;6.6;;;2.1;;
68375;SDS011;55318;52.068;5.188;2023-06-26T05:13:51;5.5;;;2.0;;
68375;SDS011;55318;52.068;5.188;2023-06-26T05:15:28;3.8;;;1.3;;
68375;SDS011;55318;52.068;5.188;2023-06-26T05:17:06;4.1;;;1.7;;
68375;SDS011;55318;52.068;5.188;2023-06-26T05:20:20;2.6;;;1.0;;
68375;SDS011;55318;52.068;5.188;2023-06-26T05:21:57;5.11;;;1.7;;
68375;SDS011;55318;52.068;5.188;2023-06-26T05:23:36;5.11;;;2.1;;
68375;SDS011;55318;52.068;5.188;2023-06-26T05:25:13;3.4;;;1.5;;
68375;SDS011;55318;52.068;5.188;2023-06-26T05:28:28;4.2;;;1.4;;
68375;SDS011;55318;52.068;5.188;2023-06-26T05:30:07;3.1;;;1.8;;
68375;SDS011;55318;52.068;5.188;2023-06-26T05:31:44;4.1;;;1.9;;
68375;SDS011;55318;52.068;5.188;2023-06-26T05:35:03;4.5;;;2.21;;
68375;SDS011;55318;52.068;5.188;2023-06-26T05:36:41;4.3;;;1.4;;
68375;SDS011;55318;52.068;5.188;2023-06-26T05:38:18;3.3;;;1.3;;
68375;SDS011;55318;52.068;5.188;2023-06-26T05:39:56;2.21;;;1.4;;
68375;SDS011;55318;52.068;5.188;2023-06-26T05:43:11;3.8;;;1.3;;
68375;SDS011;55318;52.068;5.188;2023-06-26T05:44:48;2.4;;;1.4;;
68375;SDS011;55318;52.068;5.188;2023-06-26T05:46:24;3.1;;;1.4;;
68375;SDS011;55318;52.068;5.188;2023-06-26T05:49:38;3.4;;;2.0;;
68375;SDS011;55318;52.068;5.188;2023-06-26T05:51:15;2.0;;;1.0;;
68375;SDS011;55318;52.068;5.188;2023-06-26T05:52:53;4.61;;;1.2;;
68375;SDS011;55318;52.068;5.188;2023-06-26T05:54:31;3.2;;;1.5;;
68375;SDS011;55318;52.068;5.188;2023-06-26T05:57:45;3.6;;;1.6;;
68375;SDS011;55318;52.068;5.188;2023-06-26T05:59:23;2.6;;;1.2;;
68375;SDS011;55318;52.068;5.188;2023-06-26T06:01:00;2.9;;;1.4;;
68375;SDS011;55318;52.068;5.188;2023-06-26T06:04:14;2.9;;;1.3;;
68375;SDS011;55318;52.068;5.188;2023-06-26T06:05:51;3.5;;;1.4;;
68375;SDS011;55318;52.068;5.188;2023-06-26T06:07:27;3.0;;;1.6;;
68375;SDS011;55318;52.068;5.188;2023-06-26T06:10:40;1.9;;;1.0;;
68375;SDS011;55318;52.068;5.188;2023-06-26T06:12:17;3.5;;;1.4;;
68375;SDS011;55318;52.068;5.188;2023-06-26T06:13:54;2.21;;;1.5;;
68375;SDS011;55318;52.068;5.188;2023-06-26T06:15:30;7.8;;;2.4;;
68375;SDS011;55318;52.068;5.188;2023-06-26T06:18:45;3.4;;;1.9;;
68375;SDS011;55318;52.068;5.188;2023-06-26T06:20:22;4.3;;;1.8;;
68375;SDS011;55318;52.068;5.188;2023-06-26T06:21:59;3.2;;;1.5;;
68375;SDS011;55318;52.068;5.188;2023-06-26T06:25:12;2.31;;;1.6;;
68375;SDS011;55318;52.068;5.188;2023-06-26T06:26:50;3.6;;;1.5;;
68375;SDS011;55318;52.068;5.188;2023-06-26T06:28:27;3.8;;;1.11;;
68375;SDS011;55318;52.068;5.188;2023-06-26T06:30:04;2.0;;;1.2;;
68375;SDS011;55318;52.068;5.188;2023-06-26T06:33:18;2.1;;;1.4;;
68375;SDS011;55318;52.068;5.188;2023-06-26T06:34:55;3.5;;;1.5;;
68375;SDS011;55318;52.068;5.188;2023-06-26T06:36:33;2.5;;;1.11;;
68375;SDS011;55318;52.068;5.188;2023-06-26T06:39:46;3.0;;;1.2;;
68375;SDS011;55318;52.068;5.188;2023-06-26T06:41:23;1.2;;;0.8;;
68375;SDS011;55318;52.068;5.188;2023-06-26T06:43:00;3.3;;;1.11;;
68375;SDS011;55318;52.068;5.188;2023-06-26T06:46:14;1.6;;;1.2;;
68375;SDS011;55318;52.068;5.188;2023-06-26T06:47:50;1.7;;;1.2;;
68375;SDS011;55318;52.068;5.188;2023-06-26T06:49:27;5.0;;;1.4;;
68375;SDS011;55318;52.068;5.188;2023-06-26T06:51:04;3.7;;;1.2;;
68375;SDS011;55318;52.068;5.188;2023-06-26T06:54:19;1.9;;;1.2;;
68375;SDS011;55318;52.068;5.188;2023-06-26T06:55:56;3.6;;;1.6;;
68375;SDS011;55318;52.068;5.188;2023-06-26T06:57:33;2.9;;;1.3;;
68375;SDS011;55318;52.068;5.188;2023-06-26T07:00:49;2.4;;;1.2;;
68375;SDS011;55318;52.068;5.188;2023-06-26T07:02:26;4.91;;;1.2;;
68375;SDS011;55318;52.068;5.188;2023-06-26T07:04:03;3.2;;;1.5;;
68375;SDS011;55318;52.068;5.188;2023-06-26T07:05:41;1.9;;;1.2;;
68375;SDS011;55318;52.068;5.188;2023-06-26T07:08:54;1.5;;;1.11;;
68375;SDS011;55318;52.068;5.188;2023-06-26T07:10:30;1.6;;;1.5;;
68375;SDS011;55318;52.068;5.188;2023-06-26T07:12:08;3.8;;;1.5;;
68375;SDS011;55318;52.068;5.188;2023-06-26T07:15:22;2.5;;;1.7;;
68375;SDS011;55318;52.068;5.188;2023-06-26T07:16:59;3.3;;;1.5;;
68375;SDS011;55318;52.068;5.188;2023-06-26T07:18:36;2.31;;;1.0;;
68375;SDS011;55318;52.068;5.188;2023-06-26T07:21:50;1.9;;;1.0;;
68375;SDS011;55318;52.068;5.188;2023-06-26T07:23:26;3.0;;;1.11;;
68375;SDS011;55318;52.068;5.188;2023-06-26T07:25:03;2.5;;;1.2;;
68375;SDS011;55318;52.068;5.188;2023-06-26T07:26:40;3.6;;;1.3;;
68375;SDS011;55318;52.068;5.188;2023-06-26T07:29:53;1.8;;;1.5;;
68375;SDS011;55318;52.068;5.188;2023-06-26T07:31:30;2.0;;;0.9;;
68375;SDS011;55318;52.068;5.188;2023-06-26T07:33:08;3.4;;;1.2;;
68375;SDS011;55318;52.068;5.188;2023-06-26T07:36:22;4.3;;;1.4;;
68375;SDS011;55318;52.068;5.188;2023-06-26T07:37:59;1.5;;;0.9;;
68375;SDS011;55318;52.068;5.188;2023-06-26T07:39:36;2.31;;;1.0;;
68375;SDS011;55318;52.068;5.188;2023-06-26T07:41:13;3.1;;;0.9;;
68375;SDS011;55318;52.068;5.188;2023-06-26T07:44:27;2.9;;;0.8;;
68375;SDS011;55318;52.068;5.188;2023-06-26T07:46:04;4.41;;;1.11;;
68375;SDS011;55318;52.068;5.188;2023-06-26T07:47:41;2.21;;;1.0;;
68375;SDS011;55318;52.068;5.188;2023-06-26T07:50:54;4.1;;;1.0;;
68375;SDS011;55318;52.068;5.188;2023-06-26T07:52:32;3.7;;;1.4;;
68375;SDS011;55318;52.068;5.188;2023-06-26T07:54:10;2.5;;;1.4;;
68375;SDS011;55318;52.068;5.188;2023-06-26T07:57:24;3.3;;;1.4;;
68375;SDS011;55318;52.068;5.188;2023-06-26T07:59:01;1.9;;;1.2;;
68375;SDS011;55318;52.068;5.188;2023-06-26T08:00:39;2.9;;;1.3;;
68375;SDS011;55318;52.068;5.188;2023-06-26T08:02:16;2.8;;;1.2;;
68375;SDS011;55318;52.068;5.188;2023-06-26T08:05:30;4.7;;;1.3;;
68375;SDS011;55318;52.068;5.188;2023-06-26T08:07:06;3.6;;;1.2;;
68375;SDS011;55318;52.068;5.188;2023-06-26T08:08:43;1.4;;;0.9;;
68375;SDS011;55318;52.068;5.188;2023-06-26T08:11:58;2.6;;;1.0;;
68375;SDS011;55318;52.068;5.188;2023-06-26T08:13:35;2.31;;;0.9;;
68375;SDS011;55318;52.068;5.188;2023-06-26T08:15:12;1.4;;;1.3;;
68375;SDS011;55318;52.068;5.188;2023-06-26T08:16:48;1.8;;;0.7;;
68375;SDS011;55318;52.068;5.188;2023-06-26T08:20:02;4.41;;;1.8;;
68375;SDS011;55318;52.068;5.188;2023-06-26T08:21:40;4.3;;;1.4;;
68375;SDS011;55318;52.068;5.188;2023-06-26T08:23:17;1.11;;;0.7;;
68375;SDS011;55318;52.068;5.188;2023-06-26T08:26:30;1.4;;;0.8;;
68375;SDS011;55318;52.068;5.188;2023-06-26T08:28:07;2.9;;;0.8;;
68375;SDS011;55318;52.068;5.188;2023-06-26T08:29:44;3.9;;;1.0;;
68375;SDS011;55318;52.068;5.188;2023-06-26T08:32:58;3.9;;;1.5;;
68375;SDS011;55318;52.068;5.188;2023-06-26T08:34:34;1.4;;;0.9;;
68375;SDS011;55318;52.068;5.188;2023-06-26T08:36:12;4.0;;;1.2;;
68375;SDS011;55318;52.068;5.188;2023-06-26T08:37:49;4.8;;;0.8;;
68375;SDS011;55318;52.068;5.188;2023-06-26T08:41:02;1.6;;;0.8;;
68375;SDS011;55318;52.068;5.188;2023-06-26T08:42:39;2.4;;;1.3;;
68375;SDS011;55318;52.068;5.188;2023-06-26T08:44:16;3.5;;;0.9;;
68375;SDS011;55318;52.068;5.188;2023-06-26T08:47:30;2.5;;;0.8;;
68375;SDS011;55318;52.068;5.188;2023-06-26T08:49:13;1.7;;;0.9;;
68375;SDS011;55318;52.068;5.188;2023-06-26T08:50:56;3.1;;;0.7;;
68375;SDS011;55318;52.068;5.188;2023-06-26T08:52:36;2.9;;;0.7;;
68375;SDS011;55318;52.068;5.188;2023-06-26T08:56:03;2.9;;;1.0;;
68375;SDS011;55318;52.068;5.188;2023-06-26T08:57:43;2.9;;;1.0;;
68375;SDS011;55318;52.068;5.188;2023-06-26T08:59:20;8.0;;;1.5;;
68375;SDS011;55318;52.068;5.188;2023-06-26T09:00:57;1.5;;;1.0;;
68375;SDS011;55318;52.068;5.188;2023-06-26T09:04:15;1.2;;;0.7;;
68375;SDS011;55318;52.068;5.188;2023-06-26T09:05:51;0.8;;;0.7;;
68375;SDS011;55318;52.068;5.188;2023-06-26T09:07:28;1.7;;;0.6;;
68375;SDS011;55318;52.068;5.188;2023-06-26T09:09:05;1.11;;;0.5;;
68375;SDS011;55318;52.068;5.188;2023-06-26T09:12:20;2.0;;;0.8;;
68375;SDS011;55318;52.068;5.188;2023-06-26T09:13:58;1.8;;;0.7;;
68375;SDS011;55318;52.068;5.188;2023-06-26T09:15:38;3.7;;;1.3;;
68375;SDS011;55318;52.068;5.188;2023-06-26T09:18:53;3.1;;;0.8;;
68375;SDS011;55318;52.068;5.188;2023-06-26T09:20:31;4.1;;;0.8;;
68375;SDS011;55318;52.068;5.188;2023-06-26T09:22:10;1.5;;;0.7;;
68375;SDS011;55318;52.068;5.188;2023-06-26T09:23:49;3.0;;;0.8;;
68375;SDS011;55318;52.068;5.188;2023-06-26T09:27:04;3.6;;;1.0;;
68375;SDS011;55318;52.068;5.188;2023-06-26T09:28:41;2.21;;;0.8;;
68375;SDS011;55318;52.068;5.188;2023-06-26T09:30:19;2.9;;;0.9;;
68375;SDS011;55318;52.068;5.188;2023-06-26T09:33:37;1.3;;;1.2;;
68375;SDS011;55318;52.068;5.188;2023-06-26T09:35:14;2.6;;;0.8;;
68375;SDS011;55318;52.068;5.188;2023-06-26T09:36:52;0.8;;;0.6;;
68375;SDS011;55318;52.068;5.188;2023-06-26T09:38:29;2.9;;;1.2;;
68375;SDS011;55318;52.068;5.188;2023-06-26T09:41:44;3.8;;;0.8;;
68375;SDS011;55318;52.068;5.188;2023-06-26T09:43:22;1.11;;;1.0;;
68375;SDS011;55318;52.068;5.188;2023-06-26T09:44:59;2.8;;;0.9;;
68375;SDS011;55318;52.068;5.188;2023-06-26T09:48:14;2.5;;;1.5;;
68375;SDS011;55318;52.068;5.188;2023-06-26T09:49:51;2.31;;;0.6;;
68375;SDS011;55318;52.068;5.188;2023-06-26T09:51:29;2.7;;;0.7;;
68375;SDS011;55318;52.068;5.188;2023-06-26T09:53:07;7.8;;;0.9;;
68375;SDS011;55318;52.068;5.188;2023-06-26T09:56:22;1.4;;;0.5;;
68375;SDS011;55318;52.068;5.188;2023-06-26T09:57:59;1.4;;;0.7;;
68375;SDS011;55318;52.068;5.188;2023-06-26T09:59:39;3.6;;;0.7;;
68375;SDS011;55318;52.068;5.188;2023-06-26T10:02:55;2.9;;;1.0;;
68375;SDS011;55318;52.068;5.188;2023-06-26T10:04:32;2.0;;;1.2;;
68375;SDS011;55318;52.068;5.188;2023-06-26T10:06:10;3.8;;;1.11;;
68375;SDS011;55318;52.068;5.188;2023-06-26T10:07:47;1.11;;;0.6;;
68375;SDS011;55318;52.068;5.188;2023-06-26T10:11:03;0.8;;;0.8;;
68375;SDS011;55318;52.068;5.188;2023-06-26T10:12:40;3.3;;;0.6;;
68375;SDS011;55318;52.068;5.188;2023-06-26T10:14:21;1.3;;;0.7;;
68375;SDS011;55318;52.068;5.188;2023-06-26T10:16:03;2.8;;;0.7;;
68375;SDS011;55318;52.068;5.188;2023-06-26T10:19:22;1.7;;;0.6;;
68375;SDS011;55318;52.068;5.188;2023-06-26T10:21:00;1.11;;;0.6;;
68375;SDS011;55318;52.068;5.188;2023-06-26T10:22:40;1.7;;;1.0;;
68375;SDS011;55318;52.068;5.188;2023-06-26T10:25:58;5.3;;;1.0;;
68375;SDS011;55318;52.068;5.188;2023-06-26T10:27:38;2.31;;;0.7;;
68375;SDS011;55318;52.068;5.188;2023-06-26T10:29:20;1.5;;;0.8;;
68375;SDS011;55318;52.068;5.188;2023-06-26T10:30:58;1.5;;;0.6;;
68375;SDS011;55318;52.068;5.188;2023-06-26T10:34:17;1.5;;;0.5;;
68375;SDS011;55318;52.068;5.188;2023-06-26T10:35:54;1.8;;;1.2;;
68375;SDS011;55318;52.068;5.188;2023-06-26T10:37:49;3.9;;;1.2;;
68375;SDS011;55318;52.068;5.188;2023-06-26T10:39:27;1.8;;;0.6;;
68375;SDS011;55318;52.068;5.188;2023-06-26T10:41:22;2.4;;;0.8;;
68375;SDS011;55318;52.068;5.188;2023-06-26T10:44:47;1.4;;;0.5;;
68375;SDS011;55318;52.068;5.188;2023-06-26T10:46:24;1.7;;;0.6;;
68375;SDS011;55318;52.068;5.188;2023-06-26T10:48:02;4.91;;;0.9;;
68375;SDS011;55318;52.068;5.188;2023-06-26T10:49:40;1.6;;;0.8;;
68375;SDS011;55318;52.068;5.188;2023-06-26T10:53:22;1.8;;;0.5;;
68375;SDS011;55318;52.068;5.188;2023-06-26T10:55:01;1.3;;;0.7;;
68375;SDS011;55318;52.068;5.188;2023-06-26T10:56:41;1.4;;;0.6;;
68375;SDS011;55318;52.068;5.188;2023-06-26T10:58:40;2.6;;;0.7;;
68375;SDS011;55318;52.068;5.188;2023-06-26T11:00:19;4.5;;;0.6;;
68375;SDS011;55318;52.068;5.188;2023-06-26T11:03:36;1.6;;;0.9;;
68375;SDS011;55318;52.068;5.188;2023-06-26T11:05:23;2.4;;;0.7;;
68375;SDS011;55318;52.068;5.188;2023-06-26T11:07:14;1.11;;;0.5;;
68375;SDS011;55318;52.068;5.188;2023-06-26T11:09:00;3.8;;;0.8;;
68375;SDS011;55318;52.068;5.188;2023-06-26T11:10:47;1.11;;;0.7;;
68375;SDS011;55318;52.068;5.188;2023-06-26T11:12:36;1.2;;;0.6;;
68375;SDS011;55318;52.068;5.188;2023-06-26T11:15:51;0.7;;;0.5;;
68375;SDS011;55318;52.068;5.188;2023-06-26T11:17:28;2.6;;;0.8;;
68375;SDS011;55318;52.068;5.188;2023-06-26T11:19:05;1.2;;;0.6;;
68375;SDS011;55318;52.068;5.188;2023-06-26T11:22:19;1.9;;;0.9;;
68375;SDS011;55318;52.068;5.188;2023-06-26T11:23:57;0.6;;;0.6;;
68375;SDS011;55318;52.068;5.188;2023-06-26T11:25:35;0.9;;;0.5;;
68375;SDS011;55318;52.068;5.188;2023-06-26T11:27:13;1.2;;;0.7;;
68375;SDS011;55318;52.068;5.188;2023-06-26T11:30:28;3.4;;;0.5;;
68375;SDS011;55318;52.068;5.188;2023-06-26T11:32:06;1.6;;;0.6;;
68375;SDS011;55318;52.068;5.188;2023-06-26T11:33:45;1.6;;;0.5;;
68375;SDS011;55318;52.068;5.188;2023-06-26T11:36:59;2.0;;;0.6;;
68375;SDS011;55318;52.068;5.188;2023-06-26T11:38:37;2.1;;;0.7;;
68375;SDS011;55318;52.068;5.188;2023-06-26T11:40:17;1.5;;;0.5;;
68375;SDS011;55318;52.068;5.188;2023-06-26T11:41:53;0.9;;;0.5;;
68375;SDS011;55318;52.068;5.188;2023-06-26T11:45:07;0.7;;;0.7;;
68375;SDS011;55318;52.068;5.188;2023-06-26T11:46:44;0.9;;;0.5;;
68375;SDS011;55318;52.068;5.188;2023-06-26T11:48:21;0.9;;;0.6;;
68375;SDS011;55318;52.068;5.188;2023-06-26T11:51:41;1.5;;;0.7;;
68375;SDS011;55318;52.068;5.188;2023-06-26T11:53:18;0.6;;;0.5;;
68375;SDS011;55318;52.068;5.188;2023-06-26T11:54:55;1.7;;;0.7;;
68375;SDS011;55318;52.068;5.188;2023-06-26T11:56:32;3.1;;;0.5;;
68375;SDS011;55318;52.068;5.188;2023-06-26T11:59:49;0.8;;;0.3;;
68375;SDS011;55318;52.068;5.188;2023-06-26T12:01:26;1.2;;;0.5;;
68375;SDS011;55318;52.068;5.188;2023-06-26T12:03:07;4.41;;;0.4;;
68375;SDS011;55318;52.068;5.188;2023-06-26T12:06:21;0.5;;;0.5;;
68375;SDS011;55318;52.068;5.188;2023-06-26T12:07:59;1.5;;;0.7;;
68375;SDS011;55318;52.068;5.188;2023-06-26T12:09:38;0.7;;;0.4;;
68375;SDS011;55318;52.068;5.188;2023-06-26T12:11:15;1.0;;;0.5;;
68375;SDS011;55318;52.068;5.188;2023-06-26T12:14:30;5.2;;;0.7;;
68375;SDS011;55318;52.068;5.188;2023-06-26T12:16:08;0.7;;;0.7;;
68375;SDS011;55318;52.068;5.188;2023-06-26T12:17:45;1.4;;;0.5;;
68375;SDS011;55318;52.068;5.188;2023-06-26T12:21:02;0.7;;;0.4;;
68375;SDS011;55318;52.068;5.188;2023-06-26T12:22:39;2.6;;;0.6;;
68375;SDS011;55318;52.068;5.188;2023-06-26T12:24:16;1.0;;;0.6;;
68375;SDS011;55318;52.068;5.188;2023-06-26T12:25:54;1.3;;;0.5;;
68375;SDS011;55318;52.068;5.188;2023-06-26T12:29:09;1.0;;;0.4;;
68375;SDS011;55318;52.068;5.188;2023-06-26T12:31:09;0.7;;;0.4;;
68375;SDS011;55318;52.068;5.188;2023-06-26T12:32:50;1.2;;;0.4;;
68375;SDS011;55318;52.068;5.188;2023-06-26T12:34:27;1.4;;;0.3;;
68375;SDS011;55318;52.068;5.188;2023-06-26T12:37:46;1.8;;;0.7;;
68375;SDS011;55318;52.068;5.188;2023-06-26T12:39:24;1.2;;;0.6;;
68375;SDS011;55318;52.068;5.188;2023-06-26T12:41:01;2.6;;;0.6;;
68375;SDS011;55318;52.068;5.188;2023-06-26T12:42:38;0.8;;;0.4;;
68375;SDS011;55318;52.068;5.188;2023-06-26T12:45:54;1.11;;;0.6;;
68375;SDS011;55318;52.068;5.188;2023-06-26T12:47:31;2.8;;;0.4;;
68375;SDS011;55318;52.068;5.188;2023-06-26T12:49:08;0.6;;;0.5;;
68375;SDS011;55318;52.068;5.188;2023-06-26T12:50:48;2.4;;;0.8;;
68375;SDS011;55318;52.068;5.188;2023-06-26T12:54:02;1.5;;;0.6;;
68375;SDS011;55318;52.068;5.188;2023-06-26T12:55:39;0.5;;;0.2;;
68375;SDS011;55318;52.068;5.188;2023-06-26T12:57:16;0.5;;;0.3;;
68375;SDS011;55318;52.068;5.188;2023-06-26T13:00:30;0.4;;;0.3;;